KMCC/MCC METAR and TAF weather

Enter ICAO airport designator
Station Type Date Time Source
KMCC METAR 2019/02/15 16:10 UTC NOAA

KMCC 151610Z AUTO 14010KT 9SM FEW039 SCT050 BKN100 08/07 A2997 RMK AO2


Station Type Date Time Source
KMCC Decoded METAR 2019/02/15 16:10 UTC NOAA

Sacramento, McClellan Airfield Airport, CA, United States (KMCC) 38-40N 121-24W
Feb 15, 2019 - 11:10 AM EST / 2019.02.15 1610 UTC
Wind: from the SE (140 degrees) at 12 MPH (10 KT):0
Visibility: 9 mile(s):0
Sky conditions: mostly cloudy
Temperature: 46 F (8 C)
Dew Point: 44 F (7 C)
Relative Humidity: 93%
Pressure (altimeter): 29.97 in. Hg (1014 hPa)
ob: KMCC 151610Z AUTO 14010KT 9SM FEW039 SCT050 BKN100 08/07 A2997 RMK AO2
cycle: 16

Station Type Date Time Source
KMCC TAF 2019/02/17 06:50 UTC NOAA

TAF KMCC 170539Z 1706/1806 20010KT P6SM BKN050
FM171200 14006KT P6SM -SHRA OVC025
FM171800 33008G16KT P6SM SCT030
AMD NOT SKED


Example: see airport list